Terminal Aerodrome Forecast
Issued by NWS

Home | Current Version | Previous Version | Text Only | Print | Product List | Glossary On
Versions: 1 2 3 4 5 6 7 8 9 10 11 12
000
FTUS45 KTWC 052340
TAFOLS
TAF
KOLS 052340Z 0600/0624 19020G30KT P6SM SCT250
     FM060300 20014G22KT P6SM SCT250
     FM060800 16007KT P6SM SKC
     FM061500 18012G20KT P6SM FEW090
     FM061900 21020G29KT P6SM SCT090=

USA.gov is the U.S. government's official web portal to all federal, state and local government web resources and services.